Time;durP1;ratioP1;P1;durP2;ratioP2;P2;SDS_P1;SDS_P2;PMS_P1;PMS_P2;Temp;Humidity;BMP_temperature;BMP_pressure;BME280_temperature;BME280_humidity;BME280_pressure;Samples;Min_cycle;Max_cycle;Signal;HPM_P1;HPM_P2
2022/02/27 00:01:42;;;;;;;0.30;0.30;;;0.40;99.90;;;;;;5136277;27;20043;-86
2022/02/27 00:04:09;;;;;;;0.95;0.95;;;-0.40;99.90;;;;;;5120138;27;20076;-94
2022/02/27 00:06:36;;;;;;;0.20;0.20;;;-0.40;99.90;;;;;;5102494;27;20099;-94
2022/02/27 00:09:03;;;;;;;0.20;0.20;;;-0.40;99.90;;;;;;5137500;27;20173;-94
2022/02/27 00:11:30;;;;;;;0.20;0.20;;;0.10;99.90;;;;;;5102377;27;20050;-94
2022/02/27 00:13:56;;;;;;;0.30;0.30;;;-0.50;99.90;;;;;;5136634;27;20043;-86
2022/02/27 00:16:23;;;;;;;0.30;0.30;;;0.90;99.90;;;;;;5103029;27;20035;-86
2022/02/27 00:18:50;;;;;;;0.30;0.30;;;0.00;99.90;;;;;;5120000;27;20041;-86
2022/02/27 00:21:16;;;;;;;0.30;0.30;;;0.40;99.90;;;;;;5102044;27;20489;-87
2022/02/27 00:23:43;;;;;;;0.20;0.20;;;0.80;99.90;;;;;;5102662;27;20046;-86
2022/02/27 00:26:10;;;;;;;0.30;0.30;;;-0.50;99.90;;;;;;5102903;27;20056;-94
2022/02/27 00:28:37;;;;;;;0.30;0.30;;;-0.50;99.90;;;;;;5135153;27;20050;-86
2022/02/27 00:31:03;;;;;;;0.20;0.20;;;0.80;99.90;;;;;;5102738;27;20046;-86
2022/02/27 00:33:30;;;;;;;0.30;0.30;;;-1.20;99.90;;;;;;5119243;27;20043;-93
2022/02/27 00:35:57;;;;;;;0.30;0.30;;;-0.50;99.90;;;;;;5103309;27;20043;-93
2022/02/27 00:38:23;;;;;;;0.10;0.10;;;-0.50;99.90;;;;;;5119110;27;20407;-93
2022/02/27 00:40:50;;;;;;;0.40;0.40;;;-0.50;99.90;;;;;;5119475;27;20039;-94
2022/02/27 00:43:17;;;;;;;0.30;0.30;;;-0.40;99.90;;;;;;5119312;27;20377;-87
2022/02/27 00:45:44;;;;;;;0.20;0.20;;;-0.40;99.90;;;;;;5118982;27;20042;-86
2022/02/27 00:48:10;;;;;;;0.30;0.30;;;-0.50;99.90;;;;;;5102485;27;20387;-86
2022/02/27 00:50:37;;;;;;;0.20;0.20;;;0.40;99.90;;;;;;5101907;27;20065;-86
2022/02/27 00:53:06;;;;;;;0.20;0.20;;;0.80;99.90;;;;;;5119429;27;20047;-94
2022/02/27 00:55:33;;;;;;;0.28;0.28;;;-0.50;99.90;;;;;;5119095;27;20045;-86
2022/02/27 00:57:59;;;;;;;0.30;0.30;;;0.70;99.90;;;;;;5118741;27;20107;-86
2022/02/27 01:00:26;;;;;;;0.30;0.30;;;-0.50;99.90;;;;;;5118638;27;20043;-86
2022/02/27 01:02:53;;;;;;;0.28;0.28;;;0.30;99.90;;;;;;5101874;27;20040;-87
2022/02/27 01:05:19;;;;;;;0.30;0.30;;;0.30;99.90;;;;;;5101707;27;20039;-94
2022/02/27 01:07:46;;;;;;;0.28;0.28;;;-0.10;99.90;;;;;;5135324;27;20066;-94
2022/02/27 01:10:13;;;;;;;0.20;0.20;;;-0.50;99.90;;;;;;5114872;28;20043;-94
2022/02/27 01:12:40;;;;;;;0.20;0.20;;;-0.60;99.90;;;;;;5131204;28;20039;-86
2022/02/27 01:15:08;;;;;;;0.22;0.22;;;0.90;99.90;;;;;;5098350;28;20080;-86
2022/02/27 01:17:35;;;;;;;0.22;0.22;;;-0.60;99.90;;;;;;5114696;28;20031;-86
2022/02/27 01:20:05;;;;;;;0.30;0.30;;;0.70;99.90;;;;;;5114651;28;20040;-86
2022/02/27 01:22:32;;;;;;;0.22;0.22;;;-0.60;99.90;;;;;;5114769;28;20039;-86
2022/02/27 01:24:59;;;;;;;0.28;0.28;;;0.40;99.90;;;;;;5098610;28;20121;-93
2022/02/27 01:27:26;;;;;;;0.20;0.20;;;-0.50;99.90;;;;;;5097933;28;20404;-93
2022/02/27 01:29:52;;;;;;;0.20;0.20;;;-0.60;99.90;;;;;;5114996;28;20039;-93
2022/02/27 01:32:19;;;;;;;0.30;0.30;;;0.30;99.90;;;;;;5098125;28;20043;-94
2022/02/27 01:34:48;;;;;;;0.25;0.25;;;0.10;99.90;;;;;;5098039;28;20059;-93
2022/02/27 01:37:17;;;;;;;0.30;0.30;;;-0.20;99.90;;;;;;5115201;28;20092;-86
2022/02/27 01:39:44;;;;;;;0.20;0.20;;;0.10;99.90;;;;;;5131173;28;20061;-86
2022/02/27 01:42:15;;;;;;;0.20;0.20;;;0.40;99.90;;;;;;5131080;28;20040;-86
2022/02/27 01:44:44;;;;;;;0.30;0.30;;;-0.30;99.90;;;;;;5114045;28;20097;-94
2022/02/27 01:47:12;;;;;;;0.30;0.30;;;-0.70;99.90;;;;;;5114766;28;20043;-86
2022/02/27 01:49:40;;;;;;;0.30;0.30;;;-0.70;99.90;;;;;;5130762;28;20051;-94
2022/02/27 01:52:08;;;;;;;0.30;0.30;;;-0.70;99.90;;;;;;5131089;28;20042;-93
2022/02/27 01:54:34;;;;;;;0.30;0.30;;;0.40;99.90;;;;;;5130732;28;20119;-85
2022/02/27 01:57:02;;;;;;;0.22;0.22;;;-0.80;99.90;;;;;;5130886;28;20043;-86
2022/02/27 01:59:28;;;;;;;0.30;0.30;;;-0.70;99.90;;;;;;5097728;28;20047;-94
2022/02/27 02:01:55;;;;;;;0.30;0.30;;;-0.70;99.90;;;;;;5113719;28;20046;-94
2022/02/27 02:04:22;;;;;;;0.22;0.22;;;-0.80;99.90;;;;;;5097342;28;20036;-94
2022/02/27 02:06:50;;;;;;;0.30;0.30;;;-0.80;99.90;;;;;;5113389;28;20047;-86
2022/02/27 02:09:17;;;;;;;0.30;0.30;;;-0.70;99.90;;;;;;5115309;28;20046;-86
2022/02/27 02:11:44;;;;;;;0.30;0.30;;;-0.80;99.90;;;;;;5099998;27;20706;-86
2022/02/27 02:14:10;;;;;;;0.30;0.30;;;-0.80;99.90;;;;;;5134045;28;20118;-94
2022/02/27 02:16:49;;;;;;;0.30;0.30;;;-0.50;99.90;;;;;;5100619;27;20043;-86
2022/02/27 02:19:18;;;;;;;0.30;0.30;;;-0.70;99.90;;;;;;5134286;27;20039;-86
2022/02/27 02:21:51;;;;;;;0.38;0.38;;;0.10;99.90;;;;;;5117185;28;20035;-86
2022/02/27 02:24:18;;;;;;;0.20;0.20;;;0.40;99.90;;;;;;5134740;28;20035;-94
2022/02/27 02:26:47;;;;;;;0.30;0.30;;;0.60;99.90;;;;;;5133794;28;20506;-95
2022/02/27 02:29:16;;;;;;;0.30;0.30;;;-0.80;99.90;;;;;;5134192;28;20479;-94
2022/02/27 02:31:45;;;;;;;0.30;0.30;;;-0.20;99.90;;;;;;5133888;28;20092;-94
2022/02/27 02:34:17;;;;;;;0.30;0.30;;;0.40;99.90;;;;;;5150942;28;20039;-86
2022/02/27 02:36:45;;;;;;;0.40;0.40;;;0.40;99.90;;;;;;5133750;28;20046;-86
2022/02/27 02:39:15;;;;;;;0.30;0.30;;;0.30;99.90;;;;;;5134249;28;20039;-94
2022/02/27 02:41:42;;;;;;;0.20;0.20;;;-0.80;99.90;;;;;;5133710;28;20042;-93
2022/02/27 02:44:10;;;;;;;0.30;0.30;;;-0.40;99.90;;;;;;5117842;28;20042;-94
2022/02/27 02:46:37;;;;;;;0.30;0.30;;;-0.90;99.90;;;;;;5150856;28;20039;-94
2022/02/27 02:49:05;;;;;;;0.20;0.20;;;0.30;99.90;;;;;;5134573;28;20038;-95
2022/02/27 02:51:32;;;;;;;0.30;0.30;;;0.30;99.90;;;;;;5119082;27;20039;-95
2022/02/27 02:53:59;;;;;;;0.30;0.30;;;0.10;99.90;;;;;;5137458;27;20403;-86
2022/02/27 02:56:26;;;;;;;0.30;0.30;;;-0.90;99.90;;;;;;5121196;27;20046;-94
2022/02/27 02:58:53;;;;;;;0.30;0.30;;;-0.90;99.90;;;;;;5154552;27;20050;-94
2022/02/27 03:01:22;;;;;;;0.30;0.30;;;0.20;99.90;;;;;;5120631;27;20032;-86
2022/02/27 03:03:50;;;;;;;0.30;0.30;;;-0.80;99.90;;;;;;5120633;27;20039;-94
2022/02/27 03:06:18;;;;;;;0.30;0.30;;;-0.20;99.90;;;;;;5138154;27;20035;-94
2022/02/27 03:08:46;;;;;;;0.30;0.30;;;0.40;99.90;;;;;;5154427;27;20040;-86
2022/02/27 03:11:18;;;;;;;0.30;0.30;;;0.20;99.90;;;;;;5120620;27;20055;-91
2022/02/27 03:13:46;;;;;;;0.30;0.30;;;-0.80;99.90;;;;;;5137585;27;20130;-94
2022/02/27 03:16:13;;;;;;;0.30;0.30;;;0.40;99.90;;;;;;5120841;27;20050;-94
2022/02/27 03:18:40;;;;;;;0.38;0.38;;;0.30;99.90;;;;;;5137238;27;20039;-86
2022/02/27 03:21:07;;;;;;;0.30;0.30;;;-0.40;99.90;;;;;;5137257;27;20130;-86
2022/02/27 03:23:35;;;;;;;0.20;0.20;;;0.20;99.90;;;;;;5137579;27;20507;-86
2022/02/27 03:26:03;;;;;;;0.28;0.28;;;-0.80;99.90;;;;;;5120462;27;20137;-86
2022/02/27 03:28:30;;;;;;;0.30;0.30;;;0.00;99.90;;;;;;5137885;27;20039;-94
2022/02/27 03:30:56;;;;;;;0.30;0.30;;;-0.90;99.90;;;;;;5137637;27;20401;-86
2022/02/27 03:33:23;;;;;;;0.30;0.30;;;0.10;99.90;;;;;;5103977;27;20050;-85
2022/02/27 03:35:50;;;;;;;0.40;0.40;;;0.30;99.90;;;;;;5103556;27;20125;-94
2022/02/27 03:38:18;;;;;;;0.30;0.30;;;-0.90;99.90;;;;;;5120613;27;20050;-95
2022/02/27 03:40:45;;;;;;;0.30;0.30;;;0.00;99.90;;;;;;5137637;27;20130;-93
2022/02/27 03:43:12;;;;;;;0.30;0.30;;;0.30;99.90;;;;;;5137112;27;20118;-86
2022/02/27 03:45:39;;;;;;;0.30;0.30;;;-1.10;99.90;;;;;;5137392;27;20145;-95
2022/02/27 03:48:06;;;;;;;0.30;0.30;;;0.40;99.90;;;;;;5120002;27;20663;-86
2022/02/27 03:50:32;;;;;;;0.40;0.40;;;0.00;99.90;;;;;;5119658;27;20132;-86
2022/02/27 03:52:59;;;;;;;0.30;0.30;;;-1.00;99.90;;;;;;5119758;27;20042;-94
2022/02/27 03:55:26;;;;;;;0.30;0.30;;;-0.90;99.90;;;;;;5120522;27;20551;-86
2022/02/27 03:57:53;;;;;;;0.30;0.30;;;0.10;99.90;;;;;;5136273;27;20039;-95
2022/02/27 04:00:19;;;;;;;0.38;0.38;;;-1.10;99.90;;;;;;5103501;27;20046;-95
2022/02/27 04:02:46;;;;;;;0.35;0.35;;;0.00;99.90;;;;;;5102227;28;20031;-92
2022/02/27 04:05:14;;;;;;;0.30;0.30;;;-0.30;99.90;;;;;;5119955;27;20046;-95
2022/02/27 04:07:41;;;;;;;0.30;0.30;;;0.20;99.90;;;;;;5136684;27;20039;-86
2022/02/27 04:10:09;;;;;;;0.30;0.30;;;0.00;99.90;;;;;;5103241;27;20039;-86
2022/02/27 04:12:38;;;;;;;0.30;0.30;;;-1.10;99.90;;;;;;5136650;27;20085;-94
2022/02/27 04:15:05;;;;;;;0.30;0.30;;;-1.00;99.90;;;;;;5136433;27;20140;-86
2022/02/27 04:17:32;;;;;;;0.30;0.30;;;-1.00;99.90;;;;;;5102825;27;20146;-94
2022/02/27 04:19:59;;;;;;;0.30;0.30;;;0.40;99.90;;;;;;5136152;27;20133;-95
2022/02/27 04:22:27;;;;;;;0.30;0.30;;;0.30;99.90;;;;;;5136181;27;20039;-86
2022/02/27 04:24:54;;;;;;;0.22;0.22;;;-1.00;99.90;;;;;;5135892;27;20039;-93
2022/02/27 04:27:21;;;;;;;0.30;0.30;;;0.20;99.90;;;;;;5119581;27;20035;-86
2022/02/27 04:29:47;;;;;;;0.30;0.30;;;-1.10;99.90;;;;;;5102906;27;20039;-95
2022/02/27 04:32:14;;;;;;;0.20;0.20;;;0.30;99.90;;;;;;5119316;27;20071;-86
2022/02/27 04:34:41;;;;;;;0.30;0.30;;;0.30;99.90;;;;;;5103139;27;20031;-95
2022/02/27 04:37:08;;;;;;;0.30;0.30;;;-1.10;99.90;;;;;;5119107;27;20042;-86
2022/02/27 04:39:34;;;;;;;0.30;0.30;;;-1.10;99.90;;;;;;5119466;27;20373;-86
2022/02/27 04:42:01;;;;;;;0.50;0.50;;;-1.10;99.90;;;;;;5118598;27;20050;-94
2022/02/27 04:44:28;;;;;;;0.30;0.30;;;-1.10;99.90;;;;;;5119485;27;20043;-94
2022/02/27 04:46:55;;;;;;;0.30;0.30;;;-1.10;99.90;;;;;;5102638;27;20070;-95
2022/02/27 04:49:22;;;;;;;0.28;0.28;;;-0.20;99.90;;;;;;5135548;27;20522;-86
2022/02/27 04:51:49;;;;;;;0.30;0.30;;;-1.10;99.90;;;;;;5102739;27;20078;-86
2022/02/27 04:54:16;;;;;;;0.30;0.30;;;0.10;99.90;;;;;;5118524;27;20041;-93
2022/02/27 04:56:42;;;;;;;0.35;0.35;;;-0.90;99.90;;;;;;5102701;27;20047;-94
2022/02/27 04:59:09;;;;;;;0.30;0.30;;;-0.30;99.90;;;;;;5102049;27;20403;-95
2022/02/27 05:01:36;;;;;;;0.30;0.30;;;-1.20;99.90;;;;;;5118831;27;20107;-86
2022/02/27 05:04:03;;;;;;;0.30;0.30;;;-0.10;99.90;;;;;;5101703;27;20098;-94
2022/02/27 05:06:29;;;;;;;0.30;0.30;;;-1.10;99.90;;;;;;5152602;27;20087;-85
2022/02/27 05:08:56;;;;;;;0.30;0.30;;;-1.10;99.90;;;;;;5101644;27;20027;-95
2022/02/27 05:11:23;;;;;;;0.20;0.20;;;-0.50;99.90;;;;;;5114478;28;20091;-87
2022/02/27 05:13:50;;;;;;;0.25;0.25;;;;;;;;;;5131631;28;20519;-86
2022/02/27 05:16:17;;;;;;;0.30;0.30;;;-1.10;99.90;;;;;;5131757;28;20044;-86
2022/02/27 05:18:44;;;;;;;0.30;0.30;;;-0.20;99.90;;;;;;5114678;28;20043;-86
2022/02/27 05:21:10;;;;;;;0.30;0.30;;;0.30;99.90;;;;;;5131346;28;20036;-86
2022/02/27 05:23:37;;;;;;;0.30;0.30;;;-1.10;99.90;;;;;;5114574;28;20735;-86
2022/02/27 05:26:04;;;;;;;0.28;0.28;;;0.20;99.90;;;;;;5113873;28;20180;-94
2022/02/27 05:28:31;;;;;;;0.28;0.28;;;0.00;99.90;;;;;;5098048;28;20038;-86
2022/02/27 05:30:57;;;;;;;0.30;0.30;;;-1.20;99.90;;;;;;5131101;28;20488;-91
2022/02/27 05:33:24;;;;;;;0.22;0.22;;;0.00;99.90;;;;;;5114851;28;20096;-86
2022/02/27 05:35:51;;;;;;;0.30;0.30;;;-1.20;99.90;;;;;;5114731;28;20039;-95
2022/02/27 05:38:17;;;;;;;0.30;0.30;;;-0.10;99.90;;;;;;5131489;28;20509;-93
2022/02/27 05:40:44;;;;;;;0.30;0.30;;;-0.10;99.90;;;;;;5114247;28;20500;-86
2022/02/27 05:43:11;;;;;;;0.30;0.30;;;-1.30;99.90;;;;;;5113930;28;20031;-86
2022/02/27 05:45:37;;;;;;;0.30;0.30;;;0.00;99.90;;;;;;5098006;28;20036;-95
2022/02/27 05:48:04;;;;;;;0.30;0.30;;;-1.30;99.90;;;;;;5097844;28;20039;-94
2022/02/27 05:50:31;;;;;;;0.32;0.32;;;-1.20;99.90;;;;;;5114623;28;20092;-85
2022/02/27 05:52:58;;;;;;;0.30;0.30;;;0.00;99.90;;;;;;5114700;28;20040;-86
2022/02/27 05:55:24;;;;;;;0.20;0.20;;;-0.10;99.90;;;;;;5097767;28;20149;-94
2022/02/27 05:57:51;;;;;;;0.30;0.30;;;0.00;99.90;;;;;;5130904;28;20126;-86
2022/02/27 06:00:18;;;;;;;0.40;0.40;;;-1.40;99.90;;;;;;5097083;28;20499;-86
2022/02/27 06:02:45;;;;;;;0.28;0.28;;;-0.70;99.90;;;;;;5131319;28;20044;-94
2022/02/27 06:05:11;;;;;;;0.20;0.20;;;0.10;99.90;;;;;;5097359;28;20036;-94
2022/02/27 06:07:38;;;;;;;0.30;0.30;;;-1.40;99.90;;;;;;5097032;28;20476;-86
2022/02/27 06:10:05;;;;;;;0.30;0.30;;;0.00;99.90;;;;;;5113346;28;20059;-86
2022/02/27 06:12:33;;;;;;;0.30;0.30;;;-1.40;99.90;;;;;;5113243;28;20412;-95
2022/02/27 06:14:59;;;;;;;0.30;0.30;;;-1.40;99.90;;;;;;5113609;28;20083;-86
2022/02/27 06:17:26;;;;;;;0.30;0.30;;;-0.10;99.90;;;;;;5113802;28;20456;-86
2022/02/27 06:19:53;;;;;;;0.30;0.30;;;-0.30;99.90;;;;;;5096968;28;20039;-86
2022/02/27 06:22:20;;;;;;;0.30;0.30;;;-0.10;99.90;;;;;;5130143;28;20111;-94
2022/02/27 06:24:47;;;;;;;0.30;0.30;;;-1.40;99.90;;;;;;5113517;28;20040;-94
2022/02/27 06:27:14;;;;;;;0.30;0.30;;;-1.40;99.90;;;;;;5096536;28;20051;-94
2022/02/27 06:29:41;;;;;;;0.30;0.30;;;-0.10;99.90;;;;;;5114268;28;20051;-94
2022/02/27 06:32:08;;;;;;;0.32;0.32;;;-1.30;99.90;;;;;;5097392;28;20415;-94
2022/02/27 06:34:34;;;;;;;0.25;0.25;;;-1.40;99.90;;;;;;5114015;28;20032;-94
2022/02/27 06:37:01;;;;;;;0.40;0.40;;;-1.50;99.90;;;;;;5114108;28;20503;-94
2022/02/27 06:39:28;;;;;;;0.30;0.30;;;-1.40;99.90;;;;;;5113860;28;20040;-87
2022/02/27 06:41:55;;;;;;;0.30;0.30;;;-0.70;99.90;;;;;;5130445;28;20035;-87
2022/02/27 06:44:21;;;;;;;0.30;0.30;;;-1.30;99.90;;;;;;5113424;28;20035;-87
2022/02/27 06:46:48;;;;;;;0.28;0.28;;;0.20;99.90;;;;;;5097030;28;20100;-86
2022/02/27 06:49:15;;;;;;;0.30;0.30;;;0.20;99.90;;;;;;5096617;28;20127;-86
2022/02/27 06:51:41;;;;;;;0.30;0.30;;;-0.60;99.90;;;;;;5113623;28;20501;-94
2022/02/27 06:54:08;;;;;;;0.30;0.30;;;-0.50;99.90;;;;;;5129914;28;20043;-88
2022/02/27 06:56:35;;;;;;;0.30;0.30;;;-1.30;99.90;;;;;;5114189;28;20040;-86
2022/02/27 06:59:02;;;;;;;0.30;0.30;;;0.20;99.90;;;;;;5113211;28;20548;-87
2022/02/27 07:01:29;;;;;;;0.30;0.30;;;0.00;99.90;;;;;;5096926;28;20050;-86
2022/02/27 07:03:55;;;;;;;0.30;0.30;;;-1.20;99.90;;;;;;5130359;28;20400;-86
2022/02/27 07:06:22;;;;;;;0.30;0.30;;;-0.10;99.90;;;;;;5096925;28;20464;-94
2022/02/27 07:08:49;;;;;;;0.30;0.30;;;0.10;99.90;;;;;;5113849;28;20126;-94
2022/02/27 07:11:16;;;;;;;0.30;0.30;;;-0.40;99.90;;;;;;5112805;28;20412;-94
2022/02/27 07:13:46;;;;;;;0.30;0.30;;;-1.00;99.90;;;;;;5096909;28;20496;-93
2022/02/27 07:16:15;;;;;;;0.30;0.30;;;-0.60;99.90;;;;;;5113768;28;20134;-94
2022/02/27 07:18:43;;;;;;;0.22;0.22;;;0.40;99.90;;;;;;5097792;28;20100;-93
2022/02/27 07:21:09;;;;;;;0.30;0.30;;;-1.00;99.90;;;;;;5130396;28;20036;-93
2022/02/27 07:23:36;;;;;;;0.30;0.30;;;0.40;99.90;;;;;;5096835;28;20412;-93
2022/02/27 07:26:03;;;;;;;0.30;0.30;;;0.30;99.90;;;;;;5096755;28;20059;-86
2022/02/27 07:28:29;;;;;;;0.32;0.32;;;0.10;99.90;;;;;;5113242;28;20031;-92
2022/02/27 07:30:56;;;;;;;0.30;0.30;;;-0.90;99.90;;;;;;5097155;28;20503;-86
2022/02/27 07:33:23;;;;;;;0.30;0.30;;;0.50;99.90;;;;;;5112990;28;20042;-86
2022/02/27 07:35:50;;;;;;;0.30;0.30;;;-0.60;99.90;;;;;;5112872;28;20055;-86
2022/02/27 07:38:19;;;;;;;0.30;0.30;;;0.80;99.90;;;;;;5116326;28;20531;-91
2022/02/27 07:40:48;;;;;;;0.20;0.20;;;0.70;99.90;;;;;;5116546;28;20075;-86
2022/02/27 07:43:15;;;;;;;0.30;0.30;;;0.90;99.90;;;;;;5100513;28;20458;-90
2022/02/27 07:45:42;;;;;;;0.28;0.28;;;-0.40;99.90;;;;;;5133294;28;20400;-86
2022/02/27 07:48:09;;;;;;;0.40;0.40;;;-0.40;99.90;;;;;;5099359;28;20068;-84
2022/02/27 07:50:35;;;;;;;0.38;0.38;;;-0.30;99.90;;;;;;5099188;28;20039;-86
2022/02/27 07:53:02;;;;;;;0.38;0.38;;;0.00;99.90;;;;;;5099852;28;20071;-86
2022/02/27 07:55:29;;;;;;;0.32;0.32;;;0.30;99.90;;;;;;5099713;28;20035;-87
2022/02/27 07:57:56;;;;;;;0.30;0.30;;;1.30;99.90;;;;;;5099778;28;20051;-90
2022/02/27 08:00:23;;;;;;;0.40;0.40;;;0.00;99.90;;;;;;5099410;28;20035;-91
2022/02/27 08:02:50;;;;;;;0.30;0.30;;;0.10;99.90;;;;;;5116327;28;20034;-91
2022/02/27 08:05:16;;;;;;;0.30;0.30;;;-0.20;99.90;;;;;;5099870;28;20617;-86
2022/02/27 08:07:43;;;;;;;0.30;0.30;;;0.40;99.90;;;;;;5116139;28;20444;-92
2022/02/27 08:10:10;;;;;;;0.20;0.20;;;1.70;99.90;;;;;;5116703;27;20055;-90
2022/02/27 08:12:43;;;;;;;0.30;0.30;;;0.90;99.90;;;;;;5135924;27;20046;-91
2022/02/27 08:15:12;;;;;;;0.30;0.30;;;0.70;99.90;;;;;;5151653;27;20195;-87
2022/02/27 08:17:39;;;;;;;0.30;0.30;;;0.90;99.90;;;;;;5115374;27;20047;-85
2022/02/27 08:20:06;;;;;;;0.20;0.20;;;1.00;99.90;;;;;;5111342;28;20044;-89
2022/02/27 08:22:33;;;;;;;0.30;0.30;;;1.00;99.90;;;;;;5129029;28;20093;-86
2022/02/27 08:25:00;;;;;;;0.20;0.20;;;1.80;99.90;;;;;;5115641;28;20035;-92
2022/02/27 08:27:27;;;;;;;0.30;0.30;;;1.20;99.90;;;;;;5131581;28;20039;-86
2022/02/27 08:29:55;;;;;;;0.30;0.30;;;1.30;99.90;;;;;;5131557;28;20040;-86
2022/02/27 08:32:21;;;;;;;0.20;0.20;;;2.50;99.90;;;;;;5149015;28;20411;-86
2022/02/27 08:34:48;;;;;;;0.20;0.20;;;1.80;99.90;;;;;;5115607;28;20110;-85
2022/02/27 08:37:16;;;;;;;0.20;0.20;;;1.50;99.90;;;;;;5115850;27;20042;-85
2022/02/27 08:39:43;;;;;;;0.20;0.20;;;1.80;99.90;;;;;;5124489;28;20078;-86
2022/02/27 08:42:10;;;;;;;0.30;0.30;;;2.10;99.90;;;;;;5098146;28;20071;-92
2022/02/27 08:44:38;;;;;;;0.20;0.20;;;2.80;99.90;;;;;;5115414;28;20039;-92
2022/02/27 08:47:06;;;;;;;0.20;0.20;;;3.00;99.90;;;;;;5122276;28;20571;-86
2022/02/27 08:49:36;;;;;;;0.20;0.20;;;2.10;99.90;;;;;;5113990;28;20460;-85
2022/02/27 08:52:03;;;;;;;0.20;0.20;;;3.20;99.90;;;;;;5131789;28;20047;-86
2022/02/27 08:54:30;;;;;;;0.20;0.20;;;2.30;99.90;;;;;;5131494;28;20056;-90
2022/02/27 08:56:57;;;;;;;0.20;0.20;;;3.30;99.90;;;;;;5132206;28;20043;-90
2022/02/27 08:59:24;;;;;;;0.20;0.20;;;2.50;99.90;;;;;;5114339;28;20036;-91
2022/02/27 09:01:51;;;;;;;0.20;0.20;;;2.60;99.90;;;;;;5115082;28;20047;-85
2022/02/27 09:04:17;;;;;;;0.30;0.30;;;2.70;99.90;;;;;;5114882;28;20039;-84
2022/02/27 09:06:45;;;;;;;0.20;0.20;;;2.80;99.90;;;;;;5121530;28;20044;-90
2022/02/27 09:09:12;;;;;;;0.20;0.20;;;3.80;99.90;;;;;;5135410;28;20120;-85
2022/02/27 09:11:39;;;;;;;0.20;0.20;;;3.00;99.90;;;;;;5102468;28;20136;-91
2022/02/27 09:14:06;;;;;;;0.20;0.20;;;4.10;99.90;;;;;;5114784;28;20401;-91
2022/02/27 09:16:32;;;;;;;0.20;0.20;;;3.20;99.90;;;;;;5077922;28;20036;-90
2022/02/27 09:18:59;;;;;;;0.20;0.20;;;3.30;99.90;;;;;;5127894;28;20451;-90
2022/02/27 09:21:28;;;;;;;0.10;0.10;;;4.70;99.90;;;;;;5093002;28;20043;-85
2022/02/27 09:23:56;;;;;;;0.10;0.10;;;4.40;99.90;;;;;;5094550;28;20040;-86
2022/02/27 09:26:24;;;;;;;0.10;0.10;;;3.60;99.90;;;;;;5094242;28;20047;-92
2022/02/27 09:28:51;;;;;;;0.13;0.13;;;3.70;99.90;;;;;;5077878;28;20032;-86
2022/02/27 09:31:18;;;;;;;0.17;0.17;;;3.80;99.90;;;;;;5094576;28;20500;-86
2022/02/27 09:33:45;;;;;;;0.13;0.13;;;4.70;99.90;;;;;;5077071;28;20040;-87
2022/02/27 09:36:12;;;;;;;0.10;0.10;;;4.80;99.90;;;;;;5093559;28;20048;-93
2022/02/27 09:38:40;;;;;;;0.10;0.10;;;4.10;99.90;;;;;;5076853;28;20387;-86
2022/02/27 09:41:07;;;;;;;0.17;0.17;;;4.10;99.90;;;;;;5110764;28;20044;-92
2022/02/27 09:43:37;;;;;;;0.15;0.15;;;4.30;99.90;;;;;;5110373;28;20042;-86
2022/02/27 09:46:07;;;;;;;0.20;0.20;;;5.50;99.90;;;;;;5110590;28;20078;-86
2022/02/27 09:48:35;;;;;;;0.10;0.10;;;4.30;99.90;;;;;;5110077;28;20068;-93
2022/02/27 09:51:02;;;;;;;0.20;0.20;;;4.40;99.90;;;;;;5110094;28;20044;-93
2022/02/27 09:53:29;;;;;;;0.10;0.10;;;5.70;99.90;;;;;;5110049;28;20039;-93
2022/02/27 09:55:55;;;;;;;0.17;0.17;;;4.60;99.90;;;;;;5077617;28;20062;-93
2022/02/27 09:58:22;;;;;;;0.10;0.10;;;4.60;99.90;;;;;;5077104;28;20384;-86
2022/02/27 10:00:49;;;;;;;0.20;0.20;;;5.90;99.90;;;;;;5075644;28;20052;-87
2022/02/27 10:03:16;;;;;;;0.10;0.10;;;4.70;99.90;;;;;;5076675;28;20043;-86
2022/02/27 10:05:45;;;;;;;0.20;0.20;;;4.80;99.90;;;;;;5109692;28;20469;-87
2022/02/27 10:08:13;;;;;;;0.10;0.10;;;4.80;99.90;;;;;;5110645;28;20040;-86
2022/02/27 10:10:57;;;;;;;0.10;0.10;;;5.00;99.90;;;;;;5101393;28;20087;-86
2022/02/27 10:13:37;;;;;;;0.10;0.10;;;5.00;99.90;;;;;;5130365;28;20101;-86
2022/02/27 10:16:10;;;;;;;0.10;0.10;;;5.20;99.90;;;;;;5129678;28;20061;-92
2022/02/27 10:18:47;;;;;;;0.10;0.10;;;5.20;99.90;;;;;;5129954;28;20081;-92
2022/02/27 10:21:19;;;;;;;0.10;0.10;;;5.30;99.90;;;;;;5129738;28;20046;-86
2022/02/27 10:24:08;;;;;;;0.10;0.10;;;5.30;99.90;;;;;;5147461;28;20128;-92
2022/02/27 10:26:36;;;;;;;0.10;0.10;;;5.30;99.90;;;;;;5129141;28;20097;-86
2022/02/27 10:29:09;;;;;;;0.10;0.10;;;5.40;99.90;;;;;;5129672;28;20081;-86
2022/02/27 10:31:43;;;;;;;0.10;0.10;;;5.40;99.90;;;;;;5147017;28;20051;-92
2022/02/27 10:34:20;;;;;;;0.10;0.10;;;5.40;99.90;;;;;;5130047;28;20043;-86
2022/02/27 10:37:05;;;;;;;0.10;0.10;;;5.40;99.90;;;;;;5129867;28;20093;-86
2022/02/27 10:39:32;;;;;;;0.10;0.10;;;5.50;99.90;;;;;;5129615;28;20039;-87
2022/02/27 10:42:12;;;;;;;0.20;0.20;;;5.60;99.90;;;;;;5129474;28;20113;-86
2022/02/27 10:44:42;;;;;;;0.10;0.10;;;5.70;99.90;;;;;;5129943;28;20092;-91
2022/02/27 10:47:23;;;;;;;0.10;0.10;;;5.70;99.90;;;;;;5130546;28;20508;-86
2022/02/27 10:49:51;;;;;;;0.10;0.10;;;5.70;99.90;;;;;;5128159;28;20071;-87
2022/02/27 10:52:30;;;;;;;0.10;0.10;;;5.80;99.90;;;;;;5113024;28;20039;-92
2022/02/27 10:55:07;;;;;;;0.10;0.10;;;5.80;99.90;;;;;;5129015;28;20073;-86
2022/02/27 10:57:45;;;;;;;0.10;0.10;;;5.90;99.90;;;;;;5146411;28;20105;-92
2022/02/27 11:00:20;;;;;;;0.10;0.10;;;6.00;99.90;;;;;;5129565;28;20050;-86
2022/02/27 11:02:48;;;;;;;0.10;0.10;;;6.10;99.90;;;;;;5129167;28;20512;-85
2022/02/27 11:05:16;;;;;;;0.20;0.20;;;6.60;99.90;;;;;;5129939;28;20044;-91
2022/02/27 11:07:47;;;;;;;0.10;0.10;;;6.10;99.90;;;;;;5129792;28;20036;-86
2022/02/27 11:10:17;;;;;;;0.00;0.00;;;6.20;99.90;;;;;;5129461;28;20092;-92
2022/02/27 11:12:44;;;;;;;0.10;0.10;;;6.20;99.90;;;;;;5130469;28;20457;-92
2022/02/27 11:15:14;;;;;;;0.10;0.10;;;6.20;99.90;;;;;;5117176;28;20031;-91
2022/02/27 11:17:42;;;;;;;0.10;0.10;;;6.20;99.90;;;;;;5134285;28;20189;-92
2022/02/27 11:20:10;;;;;;;0.00;0.00;;;6.30;99.90;;;;;;5086191;28;20527;-86
2022/02/27 11:22:38;;;;;;;0.10;0.10;;;6.30;99.90;;;;;;5096566;28;20044;-87
2022/02/27 11:25:09;;;;;;;0.10;0.10;;;6.30;99.90;;;;;;5080359;28;20098;-86
2022/02/27 11:27:48;;;;;;;0.10;0.10;;;6.30;99.90;;;;;;5080277;28;20048;-86
2022/02/27 11:30:20;;;;;;;0.10;0.10;;;6.30;99.90;;;;;;5113185;28;20500;-91
2022/02/27 11:32:53;;;;;;;0.20;0.20;;;6.30;99.90;;;;;;5112644;28;20072;-91
2022/02/27 11:35:32;;;;;;;0.10;0.10;;;6.30;99.90;;;;;;5112628;28;20130;-92
2022/02/27 11:37:59;;;;;;;0.10;0.10;;;6.30;99.90;;;;;;5112517;28;20484;-87
2022/02/27 11:40:28;;;;;;;0.20;0.20;;;6.40;99.90;;;;;;5095501;28;20039;-86
2022/02/27 11:43:01;;;;;;;0.10;0.10;;;6.40;99.90;;;;;;5096748;28;20485;-92
2022/02/27 11:45:37;;;;;;;0.10;0.10;;;6.40;99.90;;;;;;5113106;28;20043;-86
2022/02/27 11:48:04;;;;;;;0.10;0.10;;;6.40;99.90;;;;;;5112710;28;20036;-92
2022/02/27 11:50:35;;;;;;;0.10;0.10;;;6.50;99.90;;;;;;5095933;28;20055;-92
2022/02/27 11:53:03;;;;;;;0.10;0.10;;;6.50;99.90;;;;;;5112781;28;20397;-86
2022/02/27 11:55:42;;;;;;;0.10;0.10;;;6.60;99.90;;;;;;5112459;28;20036;-93
2022/02/27 11:58:42;;;;;;;0.10;0.10;;;6.60;99.90;;;;;;5112233;28;20032;-87
2022/02/27 12:01:11;;;;;;;0.10;0.10;;;6.70;99.90;;;;;;5129192;28;20602;-91
2022/02/27 12:03:38;;;;;;;0.10;0.10;;;6.70;99.90;;;;;;5131666;28;20043;-90
2022/02/27 12:06:07;;;;;;;0.08;0.08;;;6.80;99.90;;;;;;5095689;28;20485;-91
2022/02/27 12:08:51;;;;;;;0.10;0.10;;;6.80;99.90;;;;;;5129353;28;20067;-90
2022/02/27 12:11:29;;;;;;;0.10;0.10;;;6.80;99.90;;;;;;5126095;28;20059;-91
2022/02/27 12:14:07;;;;;;;0.00;0.00;;;6.70;99.90;;;;;;5132821;28;20085;-92
2022/02/27 12:16:47;;;;;;;0.10;0.10;;;6.70;99.90;;;;;;5132675;28;20047;-92
2022/02/27 12:19:26;;;;;;;0.10;0.10;;;6.70;99.90;;;;;;5127422;28;20059;-92
2022/02/27 12:21:57;;;;;;;0.10;0.10;;;6.70;99.90;;;;;;5111090;28;20039;-86
2022/02/27 12:24:29;;;;;;;0.00;0.00;;;6.70;99.90;;;;;;5128175;28;20040;-89
2022/02/27 12:27:01;;;;;;;0.10;0.10;;;6.70;99.90;;;;;;5112061;28;20511;-91
2022/02/27 12:29:28;;;;;;;0.10;0.10;;;6.80;99.90;;;;;;5095556;28;20051;-91
2022/02/27 12:32:01;;;;;;;0.10;0.10;;;6.80;99.90;;;;;;5111491;28;20044;-88
2022/02/27 12:34:27;;;;;;;0.10;0.10;;;6.80;99.90;;;;;;5080772;28;20047;-87
2022/02/27 12:37:00;;;;;;;0.00;0.00;;;6.80;99.90;;;;;;5091249;28;20040;-86
2022/02/27 12:39:34;;;;;;;0.10;0.10;;;6.80;99.90;;;;;;5113398;28;20446;-87
2022/02/27 12:42:01;;;;;;;0.10;0.10;;;7.00;99.90;;;;;;5115836;28;20043;-87
2022/02/27 12:44:35;;;;;;;0.10;0.10;;;6.80;99.90;;;;;;5115672;28;20070;-91
2022/02/27 12:47:05;;;;;;;0.00;0.00;;;6.80;99.90;;;;;;5149118;28;20055;-92
2022/02/27 12:52:40;;;;;;;0.10;0.10;;;6.90;99.90;;;;;;5113566;28;20130;-87
2022/02/27 12:55:22;;;;;;;0.10;0.10;;;6.70;99.90;;;;;;5088987;28;20093;-92
2022/02/27 12:57:51;;;;;;;0.10;0.10;;;7.00;99.90;;;;;;5094463;28;20055;-92
2022/02/27 13:00:21;;;;;;;0.20;0.20;;;6.80;99.90;;;;;;5099796;28;20040;-86
2022/02/27 13:02:51;;;;;;;0.10;0.10;;;6.80;99.90;;;;;;5096433;28;20040;-90